Time;durP1;ratioP1;P1;durP2;ratioP2;P2;SDS_P1;SDS_P2;PMS_P1;PMS_P2;Temp;Humidity;BMP_temperature;BMP_pressure;BME280_temperature;BME280_humidity;BME280_pressure;Samples;Min_cycle;Max_cycle;Signal;HPM_P1;HPM_P2
2022/01/18 00:00:44;;;;;;;;;;;;;;;17.33;50.38;103918.91;5069005;28;20277;-39
2022/01/18 00:03:10;;;;;;;;;;;;;;;17.31;50.54;103918.09;5062318;28;20328;-40
2022/01/18 00:05:37;;;;;;;;;;;;;;;17.31;49.76;103923.47;5068608;28;20497;-38
2022/01/18 00:08:04;;;;;;;;;;;;;;;17.29;49.92;103928.91;5067900;28;19939;-37
2022/01/18 00:10:33;;;;;;;;;;;;;;;17.29;50.31;103936.97;5064778;28;19936;-39
2022/01/18 00:15:32;;;;;;;;;;;;;;;17.26;49.85;103935.28;5065078;28;19971;-38
2022/01/18 00:20:47;;;;;;;;;;;;;;;17.24;50.46;103944.31;5062338;28;20036;-37
2022/01/18 00:23:35;;;;;;;;;;;;;;;17.23;50.53;103945.28;5066309;28;19932;-37
2022/01/18 00:26:02;;;;;;;;;;;;;;;17.22;49.59;103947.09;5071363;28;19936;-40
2022/01/18 00:28:29;;;;;;;;;;;;;;;17.20;50.37;103942.72;5064075;28;19930;-38
2022/01/18 00:31:29;;;;;;;;;;;;;;;17.19;50.02;103941.88;5068480;28;19933;-37
2022/01/18 00:34:37;;;;;;;;;;;;;;;17.19;50.56;103949.91;5067437;28;19928;-39
2022/01/18 00:37:32;;;;;;;;;;;;;;;17.17;50.46;103948.25;5057426;28;19932;-39
2022/01/18 00:39:27;;;;;;;;;;;;;;;17.15;50.38;103951.00;5062504;28;19935;-39
2022/01/18 00:41:54;;;;;;;;;;;;;;;17.13;49.95;103947.53;5066799;28;20474;-37
2022/01/18 00:44:21;;;;;;;;;;;;;;;17.13;50.59;103952.03;5074418;28;19930;-38
2022/01/18 00:46:47;;;;;;;;;;;;;;;17.11;50.52;103949.41;5069437;28;20295;-38
2022/01/18 00:49:14;;;;;;;;;;;;;;;17.10;50.69;103950.34;5070619;28;19932;-40
2022/01/18 00:51:41;;;;;;;;;;;;;;;17.09;50.51;103951.28;5066886;28;19936;-40
2022/01/18 00:54:09;;;;;;;;;;;;;;;17.09;50.64;103948.63;5071440;28;20015;-37
2022/01/18 00:56:39;;;;;;;;;;;;;;;17.07;49.82;103946.94;5071741;28;19925;-40
2022/01/18 00:59:06;;;;;;;;;;;;;;;17.08;50.61;103954.03;5067018;28;19931;-40
2022/01/18 01:01:34;;;;;;;;;;;;;;;17.06;50.45;103961.28;5072142;28;20026;-40
2022/01/18 01:04:03;;;;;;;;;;;;;;;17.04;49.96;103947.94;5067490;28;19947;-38
2022/01/18 01:06:30;;;;;;;;;;;;;;;17.03;50.49;103952.44;5071548;28;19932;-38
2022/01/18 01:08:57;;;;;;;;;;;;;;;17.03;50.04;103947.06;5071912;28;19924;-37
2022/01/18 01:11:23;;;;;;;;;;;;;;;17.02;50.45;103955.19;5067281;28;19924;-38
2022/01/18 01:13:51;;;;;;;;;;;;;;;17.02;50.39;103947.16;5063064;28;20306;-37
2022/01/18 01:45:53;;;;;;;;;;;;;;;16.90;50.00;103932.50;5064404;28;20305;-39
2022/01/18 01:48:21;;;;;;;;;;;;;;;16.89;49.65;103928.09;5071637;28;20311;-37
2022/01/18 01:51:01;;;;;;;;;;;;;;;16.89;50.36;103943.31;5069644;28;19925;-40
2022/01/18 01:53:28;;;;;;;;;;;;;;;16.89;50.73;103937.97;5067571;28;19960;-37
2022/01/18 01:55:54;;;;;;;;;;;;;;;16.88;49.65;103941.53;5070071;28;20016;-36
2022/01/18 01:58:22;;;;;;;;;;;;;;;16.87;50.04;103956.75;5072492;28;19928;-39
2022/01/18 02:00:50;;;;;;;;;;;;;;;16.85;50.15;103955.97;5071050;28;19928;-38
2022/01/18 02:03:16;;;;;;;;;;;;;;;16.85;49.94;103957.78;5068364;28;19928;-37
2022/01/18 02:05:43;;;;;;;;;;;;;;;16.84;50.06;103946.19;5067048;28;20356;-38
2022/01/18 02:08:11;;;;;;;;;;;;;;;16.84;49.78;103953.34;5074188;28;19933;-40
2022/01/18 02:10:38;;;;;;;;;;;;;;;16.84;49.46;103945.31;5070064;28;19971;-36
2022/01/18 02:13:05;;;;;;;;;;;;;;;16.83;50.02;103947.13;5067443;28;20244;-36
2022/01/18 02:15:36;;;;;;;;;;;;;;;16.82;49.87;103947.19;5065231;28;20289;-38
2022/01/18 02:23:46;;;;;;;;;;;;;;;16.78;50.00;103950.00;5041757;28;19925;-36
2022/01/18 02:26:13;;;;;;;;;;;;;;;16.78;50.02;103952.69;5071848;28;19928;-37
2022/01/18 02:28:39;;;;;;;;;;;;;;;16.78;50.54;103944.66;5064485;28;19925;-38
2022/01/18 02:31:06;;;;;;;;;;;;;;;16.76;49.25;103949.22;5067729;28;20308;-37
2022/01/18 02:33:32;;;;;;;;;;;;;;;16.76;49.75;103942.97;5068015;28;20007;-38
2022/01/18 02:35:59;;;;;;;;;;;;;;;16.74;49.83;103943.06;5067362;28;19932;-37
2022/01/18 02:38:26;;;;;;;;;;;;;;;16.74;49.56;103945.72;5069443;28;19925;-40
2022/01/18 02:40:52;;;;;;;;;;;;;;;16.76;49.82;103946.56;5067492;28;20018;-36
2022/01/18 02:43:55;;;;;;;;;;;;;;;16.84;49.95;103939.94;5068884;28;19944;-38
2022/01/18 02:46:12;;;;;;;;;;;;;;;16.93;49.29;103934.19;5067414;28;20566;-38
2022/01/18 02:48:39;;;;;;;;;;;;;;;17.01;50.09;103942.75;5068507;28;20624;-37
2022/01/18 02:51:05;;;;;;;;;;;;;;;17.09;50.02;103940.56;5069147;28;19934;-38
2022/01/18 02:53:31;;;;;;;;;;;;;;;17.18;49.48;103941.94;5067447;28;19938;-36
2022/01/18 02:55:59;;;;;;;;;;;;;;;17.24;48.94;103939.81;5067121;28;19924;-36
2022/01/18 02:58:33;;;;;;;;;;;;;;;17.35;48.77;103946.50;5067523;28;19932;-36
2022/01/18 03:03:45;;;;;;;;;;;;;;;17.50;48.78;103943.09;5066162;28;20015;-37
2022/01/18 03:06:12;;;;;;;;;;;;;;;17.56;48.96;103937.41;5063837;28;19924;-40
2022/01/18 03:08:38;;;;;;;;;;;;;;;17.62;48.63;103933.56;5066945;28;20927;-40
2022/01/18 03:11:05;;;;;;;;;;;;;;;17.64;48.71;103943.28;5063396;28;20259;-40
2022/01/18 03:13:31;;;;;;;;;;;;;;;17.67;48.51;103943.13;5069344;28;19925;-41
2022/01/18 03:15:57;;;;;;;;;;;;;;;17.69;48.40;103935.03;5068292;28;20023;-37
2022/01/18 03:18:24;;;;;;;;;;;;;;;17.69;48.49;103948.44;5064658;28;19932;-36
2022/01/18 03:20:50;;;;;;;;;;;;;;;17.68;48.52;103947.53;5068996;28;19929;-36
2022/01/18 03:23:20;;;;;;;;;;;;;;;17.66;48.16;103952.13;5067206;28;19928;-40
2022/01/18 03:26:01;;;;;;;;;;;;;;;17.62;48.38;103961.25;5066989;28;20336;-40
2022/01/18 03:28:28;;;;;;;;;;;;;;;17.56;48.26;103950.81;5070775;28;20392;-38
2022/01/18 03:30:57;;;;;;;;;;;;;;;17.52;48.82;103952.78;5064463;28;20031;-38
2022/01/18 03:33:26;;;;;;;;;;;;;;;17.50;48.82;103951.13;5067169;28;19928;-41
2022/01/18 03:35:53;;;;;;;;;;;;;;;17.46;48.68;103949.53;5067828;28;19932;-38
2022/01/18 03:38:20;;;;;;;;;;;;;;;17.43;48.81;103949.69;5064196;28;20059;-37
2022/01/18 03:40:47;;;;;;;;;;;;;;;17.42;48.83;103953.31;5070113;28;20297;-40
2022/01/18 03:43:14;;;;;;;;;;;;;;;17.39;48.51;103953.47;5064416;28;19950;-39
2022/01/18 03:45:43;;;;;;;;;;;;;;;17.36;49.02;103943.72;5069269;28;19928;-40
2022/01/18 03:48:14;;;;;;;;;;;;;;;17.35;48.51;103947.38;5064219;28;19932;-40
2022/01/18 03:50:41;;;;;;;;;;;;;;;17.32;48.89;103950.19;5063302;28;20015;-38
2022/01/18 03:53:09;;;;;;;;;;;;;;;17.31;49.36;103955.63;5065153;28;19928;-36
2022/01/18 03:55:36;;;;;;;;;;;;;;;17.27;49.06;103958.44;5071133;28;19941;-39
2022/01/18 03:58:02;;;;;;;;;;;;;;;17.27;49.41;103960.28;5064084;28;19946;-38
2022/01/18 04:00:30;;;;;;;;;;;;;;;17.24;48.88;103963.09;5067573;28;19932;-39
2022/01/18 04:02:58;;;;;;;;;;;;;;;17.21;48.92;103958.75;5066887;28;19939;-35
2022/01/18 04:05:26;;;;;;;;;;;;;;;17.21;49.30;103963.25;5066005;28;19937;-38
2022/01/18 04:07:53;;;;;;;;;;;;;;;17.18;49.09;103961.56;5067131;28;19929;-40
2022/01/18 04:10:20;;;;;;;;;;;;;;;17.24;49.40;103972.00;5066065;28;19928;-37
2022/01/18 04:12:46;;;;;;;;;;;;;;;17.28;48.96;103973.59;5070884;28;19932;-36
2022/01/18 04:15:14;;;;;;;;;;;;;;;17.35;49.06;103984.91;5070611;28;19924;-40
2022/01/18 04:26:02;;;;;;;;;;;;;;;17.69;48.51;103989.53;5066163;28;19928;-39
2022/01/18 04:31:00;;;;;;;;;;;;;;;17.86;47.90;103987.88;5074165;28;20316;-39
2022/01/18 04:33:26;;;;;;;;;;;;;;;17.92;48.14;103996.47;5069082;28;20312;-38
2022/01/18 04:35:53;;;;;;;;;;;;;;;18.00;47.98;103988.91;5073671;28;19928;-37
2022/01/18 04:38:19;;;;;;;;;;;;;;;18.06;47.51;103990.44;5068009;28;20676;-40
2022/01/18 04:40:47;;;;;;;;;;;;;;;18.12;47.51;103991.94;5071902;28;19928;-41
2022/01/18 04:43:43;;;;;;;;;;;;;;;18.18;47.42;103991.63;5070247;28;20263;-39
2022/01/18 04:48:55;;;;;;;;;;;;;;;18.29;47.57;103983.91;5067275;28;19928;-36
2022/01/18 04:51:21;;;;;;;;;;;;;;;18.34;47.36;103984.53;5069753;28;20035;-36
2022/01/18 04:53:53;;;;;;;;;;;;;;;18.38;47.37;103982.56;5069460;28;20232;-36
2022/01/18 04:56:29;;;;;;;;;;;;;;;18.42;47.16;103976.94;5070134;28;19929;-36
2022/01/18 04:58:56;;;;;;;;;;;;;;;18.47;47.36;103980.25;5074534;28;19931;-36
2022/01/18 05:01:22;;;;;;;;;;;;;;;18.50;47.49;103971.19;5068603;28;19932;-37
2022/01/18 05:03:49;;;;;;;;;;;;;;;18.54;47.29;103975.44;5065015;28;19924;-37
2022/01/18 05:06:20;;;;;;;;;;;;;;;18.56;47.32;103965.47;5065781;28;20019;-36
2022/01/18 05:08:47;;;;;;;;;;;;;;;18.57;47.16;103969.88;5063580;28;19924;-37
2022/01/18 05:11:16;;;;;;;;;;;;;;;18.58;46.79;103968.94;5066006;28;19936;-35
2022/01/18 05:24:32;;;;;;;;;;;;;;;18.43;46.67;103986.72;5068656;28;19956;-40
2022/01/18 05:26:59;;;;;;;;;;;;;;;18.37;46.50;103981.69;5063673;28;20332;-40
2022/01/18 05:29:26;;;;;;;;;;;;;;;18.34;46.54;103986.34;5067479;28;20446;-39
2022/01/18 05:31:52;;;;;;;;;;;;;;;18.29;46.47;103988.38;5067879;28;19924;-40
2022/01/18 05:34:19;;;;;;;;;;;;;;;18.18;46.71;103987.13;5070453;28;19936;-39
2022/01/18 05:36:45;;;;;;;;;;;;;;;18.12;47.07;103987.41;5066130;28;19951;-40
2022/01/18 05:39:12;;;;;;;;;;;;;;;18.06;46.97;103990.44;5067708;28;20305;-37
2022/01/18 05:41:39;;;;;;;;;;;;;;;17.99;46.98;103984.50;5066122;28;19928;-37
2022/01/18 05:44:06;;;;;;;;;;;;;;;17.95;47.03;103980.22;5066647;28;20644;-38
2022/01/18 05:46:34;;;;;;;;;;;;;;;17.90;47.15;103986.78;5064645;28;19940;-39
2022/01/18 05:49:02;;;;;;;;;;;;;;;17.86;46.89;103987.88;5072281;28;19992;-39
2022/01/18 05:51:29;;;;;;;;;;;;;;;17.82;47.36;103978.25;5069278;28;20078;-40
2022/01/18 05:53:55;;;;;;;;;;;;;;;17.78;46.95;103982.88;5067842;28;19929;-38
2022/01/18 05:56:27;;;;;;;;;;;;;;;17.73;47.58;103980.41;5070771;28;20007;-37
2022/01/18 05:58:56;;;;;;;;;;;;;;;17.69;47.10;103975.25;5068793;28;19924;-38
2022/01/18 06:01:27;;;;;;;;;;;;;;;17.67;47.50;103983.34;5070329;28;19934;-40
2022/01/18 06:09:13;;;;;;;;;;;;;;;17.57;47.24;103990.13;5062380;28;20007;-41
2022/01/18 06:11:40;;;;;;;;;;;;;;;17.55;47.17;103991.13;5071169;28;20395;-39
2022/01/18 06:14:07;;;;;;;;;;;;;;;17.52;47.17;103984.09;5067176;28;19925;-39
2022/01/18 06:16:33;;;;;;;;;;;;;;;17.49;47.67;103993.19;5069049;28;20007;-38
2022/01/18 06:18:59;;;;;;;;;;;;;;;17.50;47.70;103996.72;5069365;28;19930;-40
2022/01/18 06:21:26;;;;;;;;;;;;;;;17.47;47.55;103996.88;5070432;28;19925;-39
2022/01/18 06:23:52;;;;;;;;;;;;;;;17.43;47.49;103992.59;5071150;28;19924;-37
2022/01/18 06:26:19;;;;;;;;;;;;;;;17.40;47.96;103987.38;5067211;28;20035;-37
2022/01/18 06:28:45;;;;;;;;;;;;;;;17.36;48.04;103978.59;5064676;28;19924;-40
2022/01/18 06:31:16;;;;;;;;;;;;;;;17.37;48.12;103985.72;5060791;28;19935;-37
2022/01/18 06:33:43;;;;;;;;;;;;;;;17.33;48.13;103992.16;5067459;28;19924;-37
2022/01/18 06:36:10;;;;;;;;;;;;;;;17.31;47.77;103986.00;5063564;28;19939;-37
2022/01/18 06:38:36;;;;;;;;;;;;;;;17.31;48.17;103988.69;5068088;28;19959;-39
2022/01/18 06:41:04;;;;;;;;;;;;;;;17.31;47.93;103990.50;5068949;28;19931;-37
2022/01/18 06:43:30;;;;;;;;;;;;;;;17.26;47.48;103988.03;5069542;28;20383;-38
2022/01/18 06:45:57;;;;;;;;;;;;;;;17.24;48.14;103989.91;5065991;28;19954;-39
2022/01/18 06:48:23;;;;;;;;;;;;;;;17.22;47.66;103994.47;5068679;28;20324;-40
2022/01/18 06:50:49;;;;;;;;;;;;;;;17.21;48.19;103992.75;5064992;28;20420;-39
2022/01/18 06:53:16;;;;;;;;;;;;;;;17.18;47.38;103988.38;5065705;28;19932;-38
2022/01/18 06:55:42;;;;;;;;;;;;;;;17.19;47.74;103989.25;5068781;28;20512;-37
2022/01/18 06:58:09;;;;;;;;;;;;;;;17.15;47.94;103993.88;5065035;28;19928;-38
2022/01/18 07:00:35;;;;;;;;;;;;;;;17.15;47.96;103999.25;5067942;28;19955;-36
2022/01/18 07:03:01;;;;;;;;;;;;;;;17.14;47.93;104000.19;5062745;28;19944;-36
2022/01/18 07:05:28;;;;;;;;;;;;;;;17.13;48.07;104013.66;5066205;28;19938;-36
2022/01/18 07:07:55;;;;;;;;;;;;;;;17.10;48.35;104001.28;5065219;28;19928;-37
2022/01/18 07:10:25;;;;;;;;;;;;;;;17.11;48.28;104007.50;5060596;28;19928;-40
2022/01/18 07:12:55;;;;;;;;;;;;;;;17.11;47.67;104012.84;5064190;28;19932;-37
2022/01/18 07:15:22;;;;;;;;;;;;;;;17.08;47.55;104013.84;5069202;28;19928;-39
2022/01/18 07:17:48;;;;;;;;;;;;;;;17.08;47.75;104016.53;5067161;28;19938;-35
2022/01/18 07:20:14;;;;;;;;;;;;;;;17.06;48.18;104006.84;5065182;28;19971;-37
2022/01/18 07:22:42;;;;;;;;;;;;;;;17.05;47.94;104013.16;5062247;28;20641;-35
2022/01/18 07:25:15;;;;;;;;;;;;;;;17.03;47.76;104010.53;5062878;28;20012;-40
2022/01/18 07:27:41;;;;;;;;;;;;;;;17.03;48.15;104006.03;5065649;28;19958;-39
2022/01/18 07:30:08;;;;;;;;;;;;;;;17.03;47.53;104015.88;5066741;28;19925;-36
2022/01/18 07:32:35;;;;;;;;;;;;;;;17.03;48.32;104010.53;5064110;28;19928;-38
2022/01/18 07:35:02;;;;;;;;;;;;;;;17.01;47.47;104009.75;5065391;28;19950;-37
2022/01/18 07:37:29;;;;;;;;;;;;;;;17.00;47.47;104010.66;5045205;28;19924;-39
2022/01/18 07:39:55;;;;;;;;;;;;;;;17.00;48.26;104021.38;5068866;28;19924;-38
2022/01/18 07:42:23;;;;;;;;;;;;;;;16.99;47.69;104011.59;5066837;28;19929;-37
2022/01/18 07:44:50;;;;;;;;;;;;;;;16.98;48.06;104023.25;5064403;28;19924;-39
2022/01/18 07:47:16;;;;;;;;;;;;;;;16.97;48.41;104024.22;5068464;28;20527;-38
2022/01/18 07:49:44;;;;;;;;;;;;;;;16.98;47.90;104024.13;5063777;28;20029;-38
2022/01/18 07:52:10;;;;;;;;;;;;;;;17.02;47.82;104025.72;5063341;28;19932;-37
2022/01/18 07:54:36;;;;;;;;;;;;;;;17.09;48.26;104017.44;5065064;28;19933;-37
2022/01/18 07:57:03;;;;;;;;;;;;;;;17.17;48.00;104018.81;5065238;28;19938;-40
2022/01/18 07:59:29;;;;;;;;;;;;;;;17.24;47.31;104022.06;5062512;28;19929;-38
2022/01/18 08:01:56;;;;;;;;;;;;;;;17.36;47.40;104020.63;5070813;28;19956;-40
2022/01/18 08:04:22;;;;;;;;;;;;;;;17.44;47.21;104021.13;5061494;28;19971;-39
2022/01/18 08:06:49;;;;;;;;;;;;;;;17.53;47.48;104026.09;5062680;28;19924;-41
2022/01/18 08:09:19;;;;;;;;;;;;;;;17.60;46.98;104027.50;5063664;28;19925;-40
2022/01/18 08:11:46;;;;;;;;;;;;;;;17.69;46.68;104028.91;5059710;28;20217;-39
2022/01/18 08:14:13;;;;;;;;;;;;;;;17.76;46.99;104033.91;5061482;28;19935;-40
2022/01/18 08:16:50;;;;;;;;;;;;;;;17.83;46.47;104034.50;5067974;28;19928;-41
2022/01/18 08:19:20;;;;;;;;;;;;;;;17.91;46.43;104031.44;5061684;28;19943;-38
2022/01/18 08:21:46;;;;;;;;;;;;;;;17.98;46.25;104027.53;5068294;28;19976;-41
2022/01/18 08:24:13;;;;;;;;;;;;;;;18.05;46.47;104033.44;5065184;28;19925;-39
2022/01/18 08:26:39;;;;;;;;;;;;;;;18.09;46.36;104037.69;5061061;28;20590;-39
2022/01/18 08:29:06;;;;;;;;;;;;;;;18.14;46.31;104033.88;5063962;28;19925;-35
2022/01/18 08:31:32;;;;;;;;;;;;;;;18.19;45.94;104037.19;5063132;28;19925;-35
2022/01/18 08:33:58;;;;;;;;;;;;;;;18.23;46.14;104030.72;5062083;28;19935;-35
2022/01/18 08:36:25;;;;;;;;;;;;;;;18.28;45.88;104026.94;5066934;28;20202;-37
2022/01/18 08:38:53;;;;;;;;;;;;;;;18.32;46.07;104020.44;5064375;28;20023;-35
2022/01/18 08:41:20;;;;;;;;;;;;;;;18.36;45.84;104024.72;5060674;28;19928;-36
2022/01/18 08:43:46;;;;;;;;;;;;;;;18.39;45.73;104020.06;5061060;28;20023;-39
2022/01/18 08:46:13;;;;;;;;;;;;;;;18.43;45.63;104026.16;5064380;28;19971;-36
2022/01/18 08:48:39;;;;;;;;;;;;;;;18.47;45.22;104025.03;5064973;28;20197;-35
2022/01/18 08:51:06;;;;;;;;;;;;;;;18.49;45.01;104029.41;5064877;28;19935;-36
2022/01/18 08:53:33;;;;;;;;;;;;;;;18.53;45.64;104031.91;5063716;28;20023;-35
2022/01/18 08:55:59;;;;;;;;;;;;;;;18.55;45.36;104038.94;5060450;28;19924;-36
2022/01/18 08:58:26;;;;;;;;;;;;;;;18.59;45.19;104045.03;5061729;28;20007;-36
2022/01/18 09:00:53;;;;;;;;;;;;;;;18.61;45.44;104043.97;5068487;28;20385;-35
2022/01/18 09:03:20;;;;;;;;;;;;;;;18.65;45.50;104042.91;5067997;28;19961;-35
2022/01/18 09:05:46;;;;;;;;;;;;;;;18.66;45.53;104038.41;5070179;28;20086;-36
2022/01/18 09:08:13;;;;;;;;;;;;;;;18.70;45.17;104042.69;5067579;28;19924;-35
2022/01/18 09:10:40;;;;;;;;;;;;;;;18.72;45.14;104040.78;5065967;28;19978;-36
2022/01/18 09:13:07;;;;;;;;;;;;;;;18.74;44.79;104044.28;5067196;28;20015;-36
2022/01/18 09:15:34;;;;;;;;;;;;;;;18.76;45.08;104036.13;5067413;28;19928;-36
2022/01/18 09:18:00;;;;;;;;;;;;;;;18.78;45.16;104040.47;5069178;28;19924;-37
2022/01/18 09:20:26;;;;;;;;;;;;;;;18.80;44.94;104040.38;5068019;28;20027;-38
2022/01/18 09:22:53;;;;;;;;;;;;;;;18.83;44.94;104029.47;5064766;28;19931;-36
2022/01/18 09:25:20;;;;;;;;;;;;;;;18.84;44.89;104032.06;5069072;28;19928;-36
2022/01/18 09:27:47;;;;;;;;;;;;;;;18.87;45.03;104050.75;5064033;28;19934;-36
2022/01/18 09:30:15;;;;;;;;;;;;;;;18.88;45.03;104038.16;5069333;28;19970;-40
2022/01/18 09:32:42;;;;;;;;;;;;;;;18.90;44.80;104033.59;5068591;28;19935;-36
2022/01/18 09:35:09;;;;;;;;;;;;;;;18.92;44.62;104034.38;5063046;28;19932;-37
2022/01/18 09:37:36;;;;;;;;;;;;;;;18.93;44.68;104034.25;5064913;28;19924;-37
2022/01/18 09:40:03;;;;;;;;;;;;;;;18.96;44.67;104038.63;5068625;28;19925;-36
2022/01/18 09:42:35;;;;;;;;;;;;;;;18.97;45.06;104037.66;5069926;28;20388;-36
2022/01/18 09:45:10;;;;;;;;;;;;;;;18.99;44.66;104049.22;5067865;28;19935;-37
2022/01/18 09:47:38;;;;;;;;;;;;;;;19.01;44.48;104041.94;5070739;28;19934;-37
2022/01/18 09:50:06;;;;;;;;;;;;;;;19.02;44.62;104043.69;5068356;28;19947;-37
2022/01/18 09:52:33;;;;;;;;;;;;;;;19.04;44.92;104044.47;5065287;28;19925;-36
2022/01/18 09:54:59;;;;;;;;;;;;;;;19.05;44.59;104043.50;5067198;28;19932;-37
2022/01/18 09:57:25;;;;;;;;;;;;;;;19.07;44.83;104048.81;5066971;28;19928;-36
2022/01/18 09:59:52;;;;;;;;;;;;;;;19.07;44.71;104055.06;5070650;28;19982;-36
2022/01/18 10:02:19;;;;;;;;;;;;;;;19.08;44.51;104054.09;5060508;28;19931;-36
2022/01/18 10:04:48;;;;;;;;;;;;;;;19.08;44.45;104047.84;5069416;28;19929;-36
2022/01/18 10:07:14;;;;;;;;;;;;;;;19.09;44.50;104050.44;5063943;28;20254;-36
2022/01/18 10:09:41;;;;;;;;;;;;;;;19.11;44.98;104053.06;5066526;28;19929;-37
2022/01/18 10:12:12;;;;;;;;;;;;;;;19.12;44.77;104047.59;5062624;28;19929;-35
2022/01/18 10:14:50;;;;;;;;;;;;;;;19.14;44.52;104047.53;5062334;28;20440;-37
2022/01/18 10:17:28;;;;;;;;;;;;;;;19.15;44.44;104054.66;5063924;28;20051;-37
2022/01/18 10:19:54;;;;;;;;;;;;;;;19.16;44.59;104051.88;5063734;28;19925;-37
2022/01/18 10:22:26;;;;;;;;;;;;;;;19.17;44.32;104056.28;5065870;28;20399;-39
2022/01/18 10:24:53;;;;;;;;;;;;;;;19.17;43.99;104053.59;5065657;28;19925;-37
2022/01/18 10:27:19;;;;;;;;;;;;;;;19.20;44.75;104049.88;5065622;28;19935;-37
2022/01/18 10:29:47;;;;;;;;;;;;;;;19.20;44.50;104048.06;5060077;28;19928;-40
2022/01/18 10:32:47;;;;;;;;;;;;;;;19.21;44.42;104041.72;5063186;28;20279;-37
2022/01/18 10:35:08;;;;;;;;;;;;;;;19.22;44.11;104046.16;5060816;28;19924;-37
2022/01/18 10:37:37;;;;;;;;;;;;;;;19.23;44.27;104041.66;5065789;28;19928;-36
2022/01/18 10:40:06;;;;;;;;;;;;;;;19.24;44.45;104041.56;5064658;28;19925;-37
2022/01/18 10:42:42;;;;;;;;;;;;;;;19.26;44.25;104044.19;5066969;28;19967;-37
2022/01/18 10:45:09;;;;;;;;;;;;;;;19.27;44.28;104040.53;5066381;28;20039;-37
2022/01/18 10:47:38;;;;;;;;;;;;;;;19.29;44.18;104044.00;5064051;28;19932;-38
2022/01/18 10:50:07;;;;;;;;;;;;;;;19.30;44.04;104039.50;5068130;28;19925;-37
2022/01/18 10:52:33;;;;;;;;;;;;;;;19.31;44.12;104038.53;5066722;28;20396;-38
2022/01/18 10:55:00;;;;;;;;;;;;;;;19.32;44.64;104034.91;5064715;28;19929;-38
2022/01/18 10:57:28;;;;;;;;;;;;;;;19.32;44.45;104034.91;5065854;28;20142;-37
2022/01/18 10:59:55;;;;;;;;;;;;;;;19.33;43.77;104037.50;5063728;28;19932;-36
2022/01/18 11:02:22;;;;;;;;;;;;;;;19.34;44.38;104035.69;5061414;28;19929;-35
2022/01/18 11:04:53;;;;;;;;;;;;;;;19.36;44.34;104033.78;5063210;28;19924;-36
2022/01/18 11:07:24;;;;;;;;;;;;;;;19.37;44.28;104024.75;5063698;28;19928;-35
2022/01/18 11:09:54;;;;;;;;;;;;;;;19.38;44.00;104024.69;5065816;28;20301;-37
2022/01/18 11:12:23;;;;;;;;;;;;;;;19.39;43.83;104025.53;5066135;28;20056;-36
2022/01/18 11:15:00;;;;;;;;;;;;;;;19.41;43.94;104018.25;5065313;28;20240;-39
2022/01/18 11:17:27;;;;;;;;;;;;;;;19.41;44.05;104016.41;5064994;28;19925;-37
2022/01/18 11:19:57;;;;;;;;;;;;;;;19.42;44.46;104012.78;5067012;28;19972;-35
2022/01/18 11:22:24;;;;;;;;;;;;;;;19.43;44.41;104017.22;5062397;28;19990;-38
2022/01/18 11:24:56;;;;;;;;;;;;;;;19.44;44.57;104027.00;5067136;28;19924;-35
2022/01/18 11:27:23;;;;;;;;;;;;;;;19.45;43.91;104019.81;5066560;28;20027;-35
2022/01/18 11:29:49;;;;;;;;;;;;;;;19.46;43.82;104021.56;5063437;28;20001;-35
2022/01/18 11:32:17;;;;;;;;;;;;;;;19.47;44.36;104020.59;5064461;28;19935;-36
2022/01/18 11:34:50;;;;;;;;;;;;;;;19.47;44.30;104028.69;5062341;28;19978;-36
2022/01/18 11:37:23;;;;;;;;;;;;;;;19.48;44.11;104015.13;5063573;28;19928;-36
2022/01/18 11:39:56;;;;;;;;;;;;;;;19.48;44.31;104011.56;5060764;28;19929;-36
2022/01/18 11:42:35;;;;;;;;;;;;;;;19.49;44.23;104014.16;5072104;28;19939;-35
2022/01/18 11:45:22;;;;;;;;;;;;;;;19.51;43.88;104021.31;5062122;28;19929;-37
2022/01/18 11:48:12;;;;;;;;;;;;;;;19.51;44.39;104019.47;5061309;28;20023;-37
2022/01/18 11:50:50;;;;;;;;;;;;;;;19.51;43.83;104019.47;5057308;28;20052;-37
2022/01/18 11:56:12;;;;;;;;;;;;;;;19.53;43.63;104017.56;5068612;28;19934;-39
2022/01/18 11:58:39;;;;;;;;;;;;;;;19.54;44.03;104015.72;5063090;28;19938;-36
2022/01/18 12:01:05;;;;;;;;;;;;;;;19.54;43.74;104008.56;5061848;28;19939;-36
2022/01/18 12:03:47;;;;;;;;;;;;;;;19.55;44.32;104010.28;5062993;28;20437;-35
2022/01/18 12:06:14;;;;;;;;;;;;;;;19.55;44.38;104012.97;5061701;28;20333;-37
2022/01/18 12:08:41;;;;;;;;;;;;;;;19.56;43.74;104019.22;5070646;28;20019;-36
2022/01/18 12:11:11;;;;;;;;;;;;;;;19.55;44.02;104017.50;5066133;28;19935;-41
2022/01/18 12:13:39;;;;;;;;;;;;;;;19.55;44.39;104012.09;5059830;28;20328;-37
2022/01/18 12:16:10;;;;;;;;;;;;;;;19.52;44.47;104014.97;5062580;28;20402;-36
2022/01/18 12:18:48;;;;;;;;;;;;;;;19.48;44.50;104017.81;5064467;28;19943;-36
2022/01/18 12:21:20;;;;;;;;;;;;;;;19.45;44.58;104019.81;5061717;28;19986;-36
2022/01/18 12:23:47;;;;;;;;;;;;;;;19.42;44.61;104009.25;5070198;28;20340;-36
2022/01/18 12:26:27;;;;;;;;;;;;;;;19.37;44.05;104003.22;5059462;28;19925;-36
2022/01/18 12:34:25;;;;;;;;;;;;;;;19.22;44.34;103996.91;5062713;28;19954;-36
2022/01/18 12:36:52;;;;;;;;;;;;;;;19.17;44.46;103991.75;5069987;28;20003;-38
2022/01/18 12:39:18;;;;;;;;;;;;;;;19.13;44.61;103995.56;5067154;28;19924;-38
2022/01/18 12:41:50;;;;;;;;;;;;;;;19.09;44.85;103990.44;5066389;28;20050;-36
2022/01/18 12:44:22;;;;;;;;;;;;;;;19.04;44.60;103985.31;5066459;28;19929;-36
2022/01/18 12:46:56;;;;;;;;;;;;;;;18.98;44.92;103981.16;5067677;28;19929;-36
2022/01/18 12:49:22;;;;;;;;;;;;;;;18.93;44.65;103983.19;5068013;28;19939;-36
2022/01/18 12:52:09;;;;;;;;;;;;;;;18.86;45.13;103978.25;5071077;28;20390;-37
2022/01/18 12:54:39;;;;;;;;;;;;;;;18.83;44.84;103973.91;5069338;28;19925;-35
2022/01/18 12:57:15;;;;;;;;;;;;;;;18.83;45.38;103973.91;5066599;28;19968;-35
2022/01/18 12:59:57;;;;;;;;;;;;;;;18.85;45.12;103968.44;5060039;28;19954;-35
2022/01/18 13:02:24;;;;;;;;;;;;;;;18.86;44.88;103959.44;5069698;28;20358;-36
2022/01/18 13:05:02;;;;;;;;;;;;;;;18.88;45.02;103958.41;5066848;28;19934;-36
2022/01/18 13:07:28;;;;;;;;;;;;;;;18.91;45.16;103960.06;5066426;28;19935;-36
2022/01/18 13:10:03;;;;;;;;;;;;;;;18.94;44.96;103957.22;5069879;28;20326;-35
2022/01/18 13:12:43;;;;;;;;;;;;;;;18.98;45.25;103958.78;5061510;28;19934;-35
2022/01/18 13:15:10;;;;;;;;;;;;;;;19.03;45.06;103958.53;5070515;28;19932;-35
2022/01/18 13:23:18;;;;;;;;;;;;;;;19.15;44.77;103950.66;5062691;28;19929;-35
2022/01/18 13:25:56;;;;;;;;;;;;;;;19.18;45.08;103939.72;5068162;28;19935;-37
2022/01/18 13:28:32;;;;;;;;;;;;;;;19.22;44.56;103946.66;5064085;28;20031;-35
2022/01/18 13:31:18;;;;;;;;;;;;;;;19.26;44.90;103944.69;5069470;28;19924;-35
2022/01/18 13:33:51;;;;;;;;;;;;;;;19.29;44.17;103941.78;5067807;28;19928;-35
2022/01/18 13:36:20;;;;;;;;;;;;;;;19.31;44.98;103937.22;5069706;28;20023;-36
2022/01/18 13:38:46;;;;;;;;;;;;;;;19.34;44.81;103934.34;5067273;28;19976;-35
2022/01/18 13:41:13;;;;;;;;;;;;;;;19.39;44.28;103936.78;5064263;28;20358;-36
2022/01/18 13:43:39;;;;;;;;;;;;;;;19.42;44.37;103928.53;5062745;28;20011;-36
2022/01/18 13:46:06;;;;;;;;;;;;;;;19.44;44.12;103922.09;5065909;28;20171;-38
2022/01/18 13:48:33;;;;;;;;;;;;;;;19.45;44.67;103922.97;5065117;28;19960;-35
2022/01/18 13:51:14;;;;;;;;;;;;;;;19.46;44.12;103920.19;5062493;28;20034;-36
2022/01/18 13:53:41;;;;;;;;;;;;;;;19.47;44.40;103918.38;5064234;28;20019;-36
2022/01/18 13:56:12;;;;;;;;;;;;;;;19.46;44.82;103914.81;5064720;28;20209;-36
2022/01/18 13:58:40;;;;;;;;;;;;;;;19.44;44.47;103908.66;5059065;28;19925;-36
2022/01/18 14:01:13;;;;;;;;;;;;;;;19.43;44.26;103903.38;5062524;28;20620;-35
2022/01/18 14:03:42;;;;;;;;;;;;;;;19.41;44.89;103897.19;5063775;28;19928;-36
2022/01/18 14:06:10;;;;;;;;;;;;;;;19.38;44.30;103902.78;5063492;28;20387;-35
2022/01/18 14:08:40;;;;;;;;;;;;;;;19.36;44.62;103902.84;5063828;28;19924;-36
2022/01/18 14:11:08;;;;;;;;;;;;;;;19.31;44.85;103904.94;5063622;28;20067;-37